Time;durP1;ratioP1;P1;durP2;ratioP2;P2;SDS_P1;SDS_P2;PMS_P1;PMS_P2;Temp;Humidity;BMP_temperature;BMP_pressure;BME280_temperature;BME280_humidity;BME280_pressure;Samples;Min_cycle;Max_cycle;Signal;HPM_P1;HPM_P2
2021/03/29 00:04:48;;;;;;;6.92;3.02;;;;;;;9.14;82.38;99468.97;3798211;77;43608;-24
2021/03/29 00:09:56;;;;;;;5.37;2.72;;;;;;;9.10;83.16;99466.53;3797132;77;43325;-24
2021/03/29 00:15:03;;;;;;;6.90;3.10;;;;;;;9.06;83.80;99462.88;3851901;76;43758;-25
2021/03/29 00:20:13;;;;;;;6.95;3.40;;;;;;;9.03;84.65;99467.16;3796004;76;44058;-24
2021/03/29 00:25:21;;;;;;;6.12;2.62;;;;;;;8.99;85.63;99465.72;3796587;76;44037;-24
2021/03/29 00:30:30;;;;;;;6.40;2.17;;;;;;;8.94;85.87;99464.72;3803176;77;43700;-24
2021/03/29 00:35:38;;;;;;;4.17;1.97;;;;;;;8.93;86.12;99459.84;3791338;77;73289;-26
2021/03/29 00:40:47;;;;;;;5.12;2.22;;;;;;;8.95;85.18;99467.77;3848311;76;43091;-26
2021/03/29 00:45:56;;;;;;;4.62;2.33;;;;;;;8.94;85.53;99470.97;3837081;76;44776;-26
2021/03/29 00:51:09;;;;;;;6.47;2.62;;;;;;;8.92;85.68;99478.30;3852625;76;43619;-25
2021/03/29 00:56:17;;;;;;;7.12;2.33;;;;;;;8.90;85.33;99476.22;3825428;76;43983;-25
2021/03/29 01:01:25;;;;;;;6.17;2.47;;;;;;;8.90;84.40;99475.37;3846881;75;43365;-26
2021/03/29 01:06:32;;;;;;;4.50;2.55;;;;;;;8.88;85.59;99476.83;3835373;75;44090;-25
2021/03/29 01:11:41;;;;;;;5.17;2.22;;;;;;;8.91;84.19;99477.09;3858256;75;43722;-25
2021/03/29 01:16:50;;;;;;;5.60;2.30;;;;;;;8.90;84.08;99464.12;3874011;75;44852;-25
2021/03/29 01:22:03;;;;;;;4.60;2.22;;;;;;;8.91;83.99;99461.80;3845323;75;43327;-26
2021/03/29 01:27:09;;;;;;;5.15;2.30;;;;;;;8.89;84.02;99465.09;3875258;75;43706;-26
2021/03/29 01:32:16;;;;;;;7.03;2.58;;;;;;;8.87;84.83;99465.73;3744187;77;44042;-25
2021/03/29 01:37:22;;;;;;;7.55;2.12;;;;;;;8.89;84.36;99469.13;3740081;77;43700;-26
2021/03/29 01:42:29;;;;;;;4.95;2.30;;;;;;;8.90;85.29;99470.00;3748990;77;44085;-26
2021/03/29 01:47:35;;;;;;;4.72;2.20;;;;;;;8.83;85.16;99464.73;3772581;77;44133;-26
2021/03/29 01:52:42;;;;;;;6.42;2.10;;;;;;;8.81;85.49;99468.06;3783466;76;44038;-26
2021/03/29 01:57:48;;;;;;;5.80;2.00;;;;;;;8.79;86.09;99473.55;3882985;75;44546;-26
2021/03/29 02:02:55;;;;;;;4.58;2.00;;;;;;;8.83;85.06;99469.64;3770841;77;43461;-26
2021/03/29 02:08:03;;;;;;;2.95;1.60;;;;;;;8.89;84.59;99476.35;3795895;77;43689;-26
2021/03/29 02:13:10;;;;;;;5.87;1.98;;;;;;;8.96;83.15;99478.05;3788158;77;44053;-26
2021/03/29 02:18:19;;;;;;;5.35;2.20;;;;;;;8.98;85.04;99480.97;3783093;77;43445;-26
2021/03/29 02:23:25;;;;;;;4.90;1.75;;;;;;;9.02;83.48;99482.91;3863280;75;44750;-26
2021/03/29 02:28:33;;;;;;;4.95;1.85;;;;;;;9.03;81.54;99484.63;3885497;75;44763;-26
2021/03/29 02:33:40;;;;;;;6.17;1.65;;;;;;;9.03;81.61;99488.66;3785608;77;44055;-26
2021/03/29 02:38:46;;;;;;;5.20;2.02;;;;;;;9.05;81.93;99486.23;3854689;75;44043;-26
2021/03/29 02:43:53;;;;;;;7.63;2.40;;;;;;;9.05;80.99;99479.98;3886349;75;43701;-26
2021/03/29 02:49:01;;;;;;;5.23;2.10;;;;;;;8.96;80.42;99487.46;3859286;75;64904;-26
2021/03/29 02:54:09;;;;;;;4.72;2.10;;;;;;;8.91;82.25;99480.61;3864058;75;43297;-26
2021/03/29 02:59:17;;;;;;;5.90;2.27;;;;;;;8.90;80.59;99484.28;3852423;75;43395;-26
2021/03/29 03:04:23;;;;;;;4.00;2.20;;;;;;;8.89;81.40;99483.91;3887470;75;43687;-26
2021/03/29 03:09:29;;;;;;;4.10;1.87;;;;;;;8.93;77.37;99489.92;3841018;75;43667;-26
2021/03/29 03:14:35;;;;;;;3.45;2.05;;;;;;;9.01;78.63;99490.61;3866015;75;44033;-26
2021/03/29 03:19:41;;;;;;;4.12;1.95;;;;;;;9.00;79.06;99491.59;3834744;75;43661;-22
2021/03/29 03:24:47;;;;;;;3.22;2.08;;;;;;;8.97;80.65;99491.36;3786546;77;43123;-21
2021/03/29 03:29:53;;;;;;;3.40;2.00;;;;;;;8.89;79.49;99494.66;3790909;77;43408;-21
2021/03/29 03:34:59;;;;;;;6.85;2.15;;;;;;;8.86;79.96;99495.41;3852260;75;43840;-21
2021/03/29 03:40:06;;;;;;;3.45;1.90;;;;;;;8.81;81.13;99497.13;3862435;75;43359;-21
2021/03/29 03:45:14;;;;;;;6.60;2.15;;;;;;;8.76;81.89;99492.63;3787489;76;43413;-21
2021/03/29 03:50:20;;;;;;;6.90;2.37;;;;;;;8.73;80.85;99503.11;3868198;75;43944;-21
2021/03/29 03:55:28;;;;;;;5.35;2.27;;;;;;;8.68;80.91;99495.05;3841031;75;44160;-21
2021/03/29 04:00:35;;;;;;;5.20;2.70;;;;;;;8.64;82.92;99488.56;3874150;75;43924;-21
2021/03/29 04:05:41;;;;;;;6.35;1.98;;;;;;;8.54;84.09;99480.04;3867992;75;44094;-21
2021/03/29 04:10:51;;;;;;;4.08;2.00;;;;;;;8.47;84.18;99475.61;3860168;75;43318;-21
2021/03/29 04:15:57;;;;;;;4.90;1.98;;;;;;;8.48;83.98;99476.02;3756758;77;43277;-21
2021/03/29 04:21:03;;;;;;;8.38;2.27;;;;;;;8.43;84.50;99483.06;3769154;77;44058;-21
2021/03/29 04:26:09;;;;;;;6.60;2.47;;;;;;;8.51;82.21;99477.59;3853618;74;44049;-21
2021/03/29 04:31:15;;;;;;;4.33;1.98;;;;;;;8.45;81.34;99481.59;3861171;75;43455;-21
2021/03/29 04:36:21;;;;;;;4.75;2.10;;;;;;;8.40;82.90;99485.14;3855954;75;43726;-21
2021/03/29 04:41:28;;;;;;;5.62;2.98;;;;;;;8.37;83.31;99481.34;3872628;75;43446;-21
2021/03/29 04:46:36;;;;;;;4.67;2.17;;;;;;;8.28;83.71;99478.42;3799069;75;43531;-22
2021/03/29 04:51:42;;;;;;;6.25;2.40;;;;;;;8.18;85.29;99479.62;3804351;77;43758;-20
2021/03/29 04:56:48;;;;;;;5.80;2.27;;;;;;;8.12;84.97;99487.30;3880719;75;43412;-21
2021/03/29 05:01:54;;;;;;;4.90;2.15;;;;;;;8.06;87.86;99477.89;3841776;75;64959;-22
2021/03/29 05:07:00;;;;;;;6.60;2.67;;;;;;;8.00;87.33;99483.25;3863366;75;44043;-22
2021/03/29 05:12:10;;;;;;;6.78;2.67;;;;;;;7.97;87.92;99472.73;3842531;75;44271;-21
2021/03/29 05:17:16;;;;;;;6.85;2.47;;;;;;;8.00;88.01;99468.48;3860519;75;43364;-22
2021/03/29 05:22:21;;;;;;;8.80;2.67;;;;;;;8.01;85.77;99470.20;3862580;75;44061;-21
2021/03/29 05:27:28;;;;;;;4.35;2.20;;;;;;;7.95;87.89;99480.05;3799136;76;44109;-21
2021/03/29 05:32:35;;;;;;;7.45;2.27;;;;;;;7.91;89.79;99489.80;3727740;78;44019;-21
2021/03/29 05:37:41;;;;;;;7.78;2.70;;;;;;;7.88;88.33;99501.62;3775495;77;43709;-21
2021/03/29 05:42:47;;;;;;;4.58;2.35;;;;;;;7.88;86.73;99504.31;3867925;75;43749;-21
2021/03/29 05:47:53;;;;;;;5.50;2.20;;;;;;;7.89;87.14;99511.39;3861797;75;44070;-22
2021/03/29 05:52:59;;;;;;;5.53;2.80;;;;;;;7.93;86.10;99519.59;3874746;75;43703;-20
2021/03/29 05:58:30;;;;;;;4.35;2.92;;;;;;;7.98;86.51;99524.09;3870376;75;44021;-22
2021/03/29 06:03:29;;;;;;;7.78;2.50;;;;;;;8.08;83.85;99526.94;3882488;75;43725;-22
2021/03/29 06:08:38;;;;;;;9.20;2.67;;;;;;;8.15;84.01;99531.35;3868788;75;44390;-22
2021/03/29 06:13:44;;;;;;;3.95;2.30;;;;;;;8.27;84.34;99537.59;3842473;75;44162;-22
2021/03/29 06:18:52;;;;;;;5.33;2.30;;;;;;;8.33;85.11;99548.70;3857716;75;43421;-21
2021/03/29 06:24:00;;;;;;;6.62;2.60;;;;;;;8.41;84.10;99560.70;3850239;75;44016;-19
2021/03/29 06:29:19;;;;;;;4.37;2.40;;;;;;;8.47;86.29;99556.19;3866929;75;43767;-19
2021/03/29 06:34:34;;;;;;;8.63;2.50;;;;;;;8.57;86.39;99545.62;3893225;75;43778;-20
2021/03/29 06:39:42;;;;;;;5.27;2.53;;;;;;;8.73;85.39;99547.94;3740550;76;43690;-21
2021/03/29 06:44:47;;;;;;;5.58;2.52;;;;;;;8.82;86.05;99543.17;3833987;75;44473;-21
2021/03/29 06:49:54;;;;;;;6.15;2.58;;;;;;;8.96;86.47;99550.63;3851435;75;43624;-21
2021/03/29 06:55:17;;;;;;;6.37;2.60;;;;;;;9.03;82.31;99558.55;3860804;74;43522;-21
2021/03/29 07:00:31;;;;;;;5.72;2.47;;;;;;;9.27;81.59;99562.92;3856773;75;44045;-21
2021/03/29 07:05:38;;;;;;;6.53;2.72;;;;;;;9.46;77.22;99559.11;3857687;75;43337;-20
2021/03/29 07:10:44;;;;;;;5.65;2.87;;;;;;;9.61;74.62;99560.15;3828388;75;43423;-20
2021/03/29 07:15:51;;;;;;;6.95;2.70;;;;;;;9.69;77.68;99552.31;3856354;74;44395;-20
2021/03/29 07:20:58;;;;;;;9.18;3.22;;;;;;;9.77;77.78;99556.56;3875824;75;43712;-21
2021/03/29 07:26:05;;;;;;;7.28;2.80;;;;;;;9.91;77.98;99563.98;3868605;75;43988;-22
2021/03/29 07:31:15;;;;;;;8.10;3.05;;;;;;;9.97;76.57;99568.35;3871803;75;43393;-22
2021/03/29 07:36:44;;;;;;;6.53;2.90;;;;;;;10.01;74.92;99576.52;3882026;75;44034;-22
2021/03/29 07:42:02;;;;;;;7.08;3.27;;;;;;;10.20;76.93;99587.09;3853205;75;43297;-21
2021/03/29 07:47:08;;;;;;;8.13;2.80;;;;;;;10.36;74.52;99576.34;3881537;75;44576;-21
2021/03/29 07:52:33;;;;;;;7.87;3.25;;;;;;;10.54;76.39;99584.71;3867988;75;43441;-21
2021/03/29 07:58:04;;;;;;;9.88;3.70;;;;;;;10.72;73.87;99576.88;3862326;75;44117;-23
2021/03/29 08:03:43;;;;;;;8.70;3.77;;;;;;;10.84;69.19;99579.84;3874079;75;43742;-23
2021/03/29 08:08:55;;;;;;;11.45;3.52;;;;;;;10.99;71.16;99581.71;3756596;77;44405;-20
2021/03/29 08:14:00;;;;;;;10.08;3.33;;;;;;;11.03;67.08;99585.82;3743610;77;43370;-20
2021/03/29 08:19:12;;;;;;;7.33;3.35;;;;;;;11.21;68.87;99602.73;3735473;78;43725;-21
2021/03/29 08:24:31;;;;;;;9.68;3.52;;;;;;;11.45;70.67;99602.37;3751864;78;43686;-21
2021/03/29 08:29:40;;;;;;;10.88;4.28;;;;;;;11.69;68.12;99600.66;3684106;78;44144;-21
2021/03/29 08:34:58;;;;;;;8.35;3.35;;;;;;;11.92;68.28;99597.70;3845957;75;43346;-21
2021/03/29 08:40:10;;;;;;;7.35;3.58;;;;;;;12.02;65.74;99609.88;3842296;75;43455;-21
2021/03/29 08:45:19;;;;;;;7.60;3.25;;;;;;;12.13;65.54;99606.20;3842483;75;43682;-21
2021/03/29 08:50:27;;;;;;;9.45;4.15;;;;;;;12.22;67.27;99616.14;3862871;75;44233;-21
2021/03/29 08:55:35;;;;;;;7.92;3.92;;;;;;;12.17;62.23;99621.98;3889052;75;44023;-21
2021/03/29 09:00:43;;;;;;;9.95;4.30;;;;;;;12.26;65.33;99619.41;3860762;75;43726;-22
2021/03/29 09:05:50;;;;;;;8.98;4.08;;;;;;;12.43;66.95;99631.34;3861555;75;44187;-21
2021/03/29 09:10:59;;;;;;;8.40;4.03;;;;;;;12.47;63.16;99625.50;3876225;75;44444;-22
2021/03/29 09:16:08;;;;;;;8.45;3.80;;;;;;;12.64;62.73;99623.07;3891280;74;43356;-21
2021/03/29 09:21:15;;;;;;;9.85;3.85;;;;;;;12.72;63.50;99623.19;3850044;75;42948;-21
2021/03/29 09:26:28;;;;;;;9.48;3.72;;;;;;;12.90;63.41;99628.70;3860865;75;43381;-21
2021/03/29 09:31:36;;;;;;;8.45;3.70;;;;;;;13.03;62.88;99620.28;3854193;75;44245;-21
2021/03/29 09:36:41;;;;;;;8.35;4.28;;;;;;;13.21;61.15;99624.90;3868397;75;43115;-22
2021/03/29 09:41:53;;;;;;;8.00;3.92;;;;;;;13.47;60.34;99618.84;3858649;75;44195;-21
2021/03/29 09:47:00;;;;;;;8.30;3.70;;;;;;;13.60;58.04;99626.59;3865003;75;43705;-21
2021/03/29 09:52:09;;;;;;;8.63;3.50;;;;;;;13.79;60.31;99628.33;3856143;74;43469;-21
2021/03/29 09:57:18;;;;;;;9.60;3.35;;;;;;;13.92;57.93;99632.05;3847592;74;44012;-22
2021/03/29 10:02:27;;;;;;;6.05;3.00;;;;;;;14.07;59.08;99634.55;3796609;76;44071;-21
2021/03/29 10:07:33;;;;;;;9.70;3.10;;;;;;;14.24;55.73;99619.81;3737546;77;44845;-22
2021/03/29 10:12:39;;;;;;;5.70;2.70;;;;;;;14.37;54.61;99619.41;3724085;77;43409;-21
2021/03/29 10:17:45;;;;;;;7.65;2.60;;;;;;;14.58;50.36;99631.28;3865465;75;44000;-21
2021/03/29 10:22:51;;;;;;;6.28;2.58;;;;;;;14.74;50.98;99617.02;3826143;75;43133;-22
2021/03/29 10:27:57;;;;;;;6.40;2.80;;;;;;;15.08;50.49;99599.92;3881963;74;43922;-21
2021/03/29 10:33:04;;;;;;;4.90;2.40;;;;;;;15.29;50.25;99608.19;3873917;75;43395;-21
2021/03/29 10:38:10;;;;;;;9.35;2.90;;;;;;;15.32;50.20;99602.41;3855040;75;43546;-22
2021/03/29 10:43:16;;;;;;;6.90;3.00;;;;;;;15.55;52.43;99597.25;3872898;74;44047;-22
2021/03/29 10:48:24;;;;;;;6.85;2.70;;;;;;;15.70;50.30;99596.94;3847820;75;44404;-22
2021/03/29 10:53:30;;;;;;;6.37;3.08;;;;;;;15.89;50.38;99597.72;3870120;75;43963;-22
2021/03/29 10:58:36;;;;;;;3.83;2.02;;;;;;;16.01;50.41;99599.09;3870044;75;43710;-22
2021/03/29 11:03:42;;;;;;;7.45;2.55;;;;;;;16.22;49.17;99586.03;3778111;77;44077;-22
2021/03/29 11:08:51;;;;;;;5.25;1.82;;;;;;;16.33;48.35;99587.06;3760671;76;43308;-23
2021/03/29 11:13:56;;;;;;;4.40;1.40;;;;;;;16.56;47.79;99583.12;3735127;78;43101;-22
2021/03/29 11:19:03;;;;;;;4.25;2.20;;;;;;;17.01;43.79;99570.47;3876422;75;43472;-22
2021/03/29 11:24:11;;;;;;;3.40;1.37;;;;;;;17.33;41.80;99568.67;3894965;75;42242;-22
2021/03/29 11:29:17;;;;;;;3.20;1.30;;;;;;;17.34;37.18;99571.20;3847099;75;44003;-23
2021/03/29 11:34:23;;;;;;;4.22;1.40;;;;;;;17.74;41.36;99560.79;3881254;75;44069;-24
2021/03/29 11:39:31;;;;;;;2.22;1.30;;;;;;;17.70;40.97;99568.45;3875943;75;43681;-24
2021/03/29 11:44:36;;;;;;;4.40;1.32;;;;;;;17.92;39.94;99568.16;3879610;74;43971;-24
2021/03/29 11:49:43;;;;;;;4.45;1.10;;;;;;;17.86;38.37;99562.91;3866333;75;43352;-24
2021/03/29 11:54:49;;;;;;;2.40;1.10;;;;;;;17.74;40.44;99566.24;3862044;75;43244;-24
2021/03/29 11:59:55;;;;;;;4.97;1.20;;;;;;;17.99;38.49;99566.95;3880818;75;44073;-24
2021/03/29 12:05:07;;;;;;;4.28;1.47;;;;;;;18.07;37.40;99555.13;3868593;75;44466;-25
2021/03/29 12:15:45;;;;;;;3.17;1.35;;;;;;;18.22;37.61;99556.55;3803277;77;44065;-22
2021/03/29 12:20:49;;;;;;;2.65;1.50;;;;;;;18.25;36.52;99552.93;3807153;77;44092;-22
2021/03/29 12:25:57;;;;;;;4.37;1.40;;;;;;;18.63;36.63;99554.83;3781968;77;43147;-24
2021/03/29 12:31:04;;;;;;;4.37;1.20;;;;;;;18.59;36.43;99545.30;3871425;75;43733;-24
2021/03/29 12:36:12;;;;;;;3.92;1.30;;;;;;;18.80;36.28;99550.04;3882439;74;44125;-24
2021/03/29 12:41:21;;;;;;;4.33;1.25;;;;;;;19.00;36.75;99542.14;3870877;75;43745;-24
2021/03/29 12:46:27;;;;;;;4.25;1.22;;;;;;;19.13;37.72;99536.53;3852641;75;44077;-24
2021/03/29 12:51:33;;;;;;;4.47;1.52;;;;;;;19.32;36.51;99535.97;3883308;75;43473;-24
2021/03/29 12:56:40;;;;;;;2.70;1.30;;;;;;;19.42;36.82;99534.81;3876750;75;43291;-25
2021/03/29 13:01:48;;;;;;;3.50;1.32;;;;;;;19.73;37.28;99531.81;3778095;77;44040;-26
2021/03/29 13:07:21;;;;;;;2.72;1.65;;;;;;;19.80;35.84;99524.52;3777381;76;43700;-25
2021/03/29 13:12:22;;;;;;;4.05;1.50;;;;;;;19.67;36.01;99524.36;3765505;77;44010;-25
2021/03/29 13:17:29;;;;;;;4.58;1.60;;;;;;;19.55;35.68;99519.41;3772392;76;44023;-25
2021/03/29 13:22:35;;;;;;;3.33;1.60;;;;;;;19.98;35.06;99518.63;3794602;76;43322;-25
2021/03/29 13:27:42;;;;;;;4.20;1.50;;;;;;;20.05;36.10;99521.95;3747389;77;43292;-25
2021/03/29 13:32:50;;;;;;;5.58;1.70;;;;;;;20.03;34.58;99522.67;3730636;78;43441;-25
2021/03/29 13:37:57;;;;;;;3.30;1.35;;;;;;;19.98;35.99;99524.09;3855337;75;44071;-25
2021/03/29 13:43:04;;;;;;;4.03;1.57;;;;;;;20.30;35.77;99534.69;3875171;75;43332;-25
2021/03/29 13:48:10;;;;;;;4.55;1.40;;;;;;;20.22;34.40;99528.00;3883793;75;43767;-25
2021/03/29 13:53:16;;;;;;;3.22;1.40;;;;;;;20.20;33.77;99524.61;3876166;75;44127;-25
2021/03/29 13:58:22;;;;;;;3.92;1.22;;;;;;;20.19;34.79;99522.38;3889170;75;44080;-25
2021/03/29 14:03:29;;;;;;;4.33;1.50;;;;;;;20.25;35.24;99519.38;3877205;75;43717;-25
2021/03/29 14:08:35;;;;;;;5.08;1.47;;;;;;;20.61;34.99;99521.13;3799186;75;43000;-25
2021/03/29 14:13:41;;;;;;;5.03;1.60;;;;;;;20.72;34.86;99512.35;3849411;75;43366;-26
2021/03/29 14:18:47;;;;;;;2.85;1.22;;;;;;;20.89;34.75;99514.27;3840170;75;44039;-26
2021/03/29 14:23:53;;;;;;;5.72;1.42;;;;;;;21.11;34.66;99500.47;3790510;77;43103;-24
2021/03/29 14:28:59;;;;;;;3.10;1.57;;;;;;;21.01;34.35;99502.75;3865169;75;44267;-26
2021/03/29 14:34:07;;;;;;;2.85;1.30;;;;;;;21.25;33.73;99500.03;3868930;75;43052;-25
2021/03/29 14:39:19;;;;;;;3.15;1.35;;;;;;;21.34;34.74;99507.55;3865778;75;43357;-24
2021/03/29 14:44:29;;;;;;;4.45;1.40;;;;;;;21.49;33.91;99510.95;3859836;75;43433;-25
2021/03/29 14:49:36;;;;;;;2.87;1.22;;;;;;;21.33;34.06;99510.80;3876177;75;43709;-26
2021/03/29 14:54:42;;;;;;;3.47;1.30;;;;;;;21.60;33.80;99500.47;3868348;75;43398;-26
2021/03/29 14:59:52;;;;;;;3.50;1.57;;;;;;;21.54;33.80;99503.48;3867505;75;44086;-26
2021/03/29 15:04:57;;;;;;;2.98;1.60;;;;;;;21.50;33.43;99494.83;3889215;74;43279;-24
2021/03/29 15:10:03;;;;;;;2.83;1.10;;;;;;;21.49;34.15;99501.36;3881083;74;44156;-25
2021/03/29 15:15:11;;;;;;;2.92;1.20;;;;;;;21.33;33.17;99503.95;3873575;75;44079;-24
2021/03/29 15:20:17;;;;;;;2.83;1.45;;;;;;;20.88;32.30;99497.52;3860512;75;44004;-25
2021/03/29 15:25:23;;;;;;;3.62;1.27;;;;;;;21.11;31.61;99505.13;3875951;75;43722;-26
2021/03/29 15:30:29;;;;;;;3.47;1.20;;;;;;;20.98;31.59;99502.64;3869368;75;43724;-26
2021/03/29 15:35:35;;;;;;;3.37;1.20;;;;;;;21.40;32.98;99499.86;3849025;75;43333;-26
2021/03/29 15:40:42;;;;;;;3.37;1.20;;;;;;;21.23;32.47;99498.01;3875124;74;44112;-26
2021/03/29 15:45:48;;;;;;;2.58;1.20;;;;;;;20.86;33.40;99498.77;3878989;75;43723;-27
2021/03/29 15:50:54;;;;;;;3.83;1.12;;;;;;;20.75;32.96;99491.98;3892203;75;44594;-25
2021/03/29 15:56:01;;;;;;;3.67;1.27;;;;;;;20.82;33.41;99489.26;3861223;75;43725;-25
2021/03/29 16:01:09;;;;;;;2.20;1.32;;;;;;;20.91;33.83;99495.75;3812474;75;43702;-25
2021/03/29 16:06:15;;;;;;;2.40;1.20;;;;;;;20.72;33.76;99490.45;3854263;75;43293;-25
2021/03/29 16:11:21;;;;;;;5.22;1.45;;;;;;;20.60;33.12;99498.39;3830594;75;44083;-24
2021/03/29 16:16:27;;;;;;;3.87;1.50;;;;;;;21.01;34.03;99509.09;3861432;75;44111;-24
2021/03/29 16:21:34;;;;;;;5.70;1.40;;;;;;;20.85;34.86;99505.30;3856849;74;44100;-24
2021/03/29 16:26:40;;;;;;;2.30;1.22;;;;;;;20.79;34.52;99512.43;3851925;75;43178;-24
2021/03/29 16:31:46;;;;;;;3.25;1.50;;;;;;;20.50;34.41;99506.11;3872684;75;43686;-24
2021/03/29 16:36:54;;;;;;;3.70;1.50;;;;;;;20.48;35.60;99513.67;3841289;75;44130;-24
2021/03/29 16:42:01;;;;;;;2.75;1.60;;;;;;;20.20;36.02;99517.23;3880719;75;44087;-24
2021/03/29 16:47:07;;;;;;;2.55;1.50;;;;;;;20.06;36.94;99514.91;3860026;75;44059;-24
2021/03/29 16:52:14;;;;;;;2.95;1.40;;;;;;;19.86;35.07;99514.20;3873316;75;43355;-24
2021/03/29 16:57:20;;;;;;;2.45;1.42;;;;;;;19.58;35.91;99508.59;3882858;74;44635;-24
2021/03/29 17:02:27;;;;;;;6.97;2.00;;;;;;;19.29;37.55;99513.61;3862823;75;43677;-24
2021/03/29 17:07:33;;;;;;;5.20;1.82;;;;;;;19.12;37.75;99518.44;3849937;75;43726;-25
2021/03/29 17:12:39;;;;;;;4.90;2.00;;;;;;;18.76;38.88;99522.23;3861439;75;44201;-25
2021/03/29 17:17:45;;;;;;;3.58;2.05;;;;;;;18.35;39.66;99521.31;3840298;75;44061;-24
2021/03/29 17:22:51;;;;;;;3.60;1.75;;;;;;;18.03;40.10;99523.30;3859537;75;44088;-24
2021/03/29 17:27:58;;;;;;;3.05;1.72;;;;;;;17.93;39.66;99527.59;3742168;77;43270;-22
2021/03/29 17:33:05;;;;;;;3.42;1.80;;;;;;;17.86;40.77;99535.64;3753413;76;42966;-22
2021/03/29 17:38:12;;;;;;;5.00;2.15;;;;;;;17.77;41.38;99541.33;3732994;77;44163;-23
2021/03/29 17:43:18;;;;;;;4.90;2.50;;;;;;;17.46;41.31;99549.88;3837331;75;44139;-22
2021/03/29 17:48:25;;;;;;;5.30;1.98;;;;;;;17.33;41.65;99555.05;3829760;75;44014;-22
2021/03/29 17:53:32;;;;;;;6.55;2.40;;;;;;;17.21;41.92;99564.97;3832397;75;44047;-22
2021/03/29 17:58:39;;;;;;;3.75;1.90;;;;;;;17.09;42.01;99571.83;3864122;75;44125;-22
2021/03/29 18:03:45;;;;;;;2.65;1.75;;;;;;;16.92;41.95;99565.55;3796560;76;44082;-22
2021/03/29 18:08:54;;;;;;;4.85;1.98;;;;;;;16.81;41.74;99572.72;3767026;77;44544;-23
2021/03/29 18:14:01;;;;;;;3.02;1.70;;;;;;;16.60;42.15;99576.81;3781492;77;43393;-21
2021/03/29 18:19:07;;;;;;;2.50;1.80;;;;;;;16.41;42.43;99584.81;3876498;75;43456;-22
2021/03/29 18:24:15;;;;;;;6.45;2.10;;;;;;;16.36;42.55;99592.13;3866987;75;43382;-22
2021/03/29 18:29:22;;;;;;;4.12;2.45;;;;;;;16.25;42.53;99600.62;3844636;75;43346;-22
2021/03/29 18:34:28;;;;;;;4.83;2.08;;;;;;;16.13;43.62;99610.48;3878236;75;44038;-25
2021/03/29 18:39:35;;;;;;;5.67;2.80;;;;;;;15.73;45.33;99616.16;3757119;77;43054;-25
2021/03/29 18:44:41;;;;;;;6.33;2.90;;;;;;;15.51;46.13;99624.39;3872202;75;43476;-25
2021/03/29 18:49:51;;;;;;;5.67;2.45;;;;;;;14.97;47.41;99630.05;3847276;75;44712;-25
2021/03/29 18:54:57;;;;;;;5.65;2.60;;;;;;;14.89;47.77;99643.92;3854662;75;43991;-25
2021/03/29 19:00:04;;;;;;;4.22;2.30;;;;;;;14.85;47.77;99647.95;3835384;75;44094;-24
2021/03/29 19:05:12;;;;;;;4.72;2.40;;;;;;;14.91;47.22;99650.05;3862461;75;44148;-24
2021/03/29 19:10:22;;;;;;;5.20;2.20;;;;;;;14.91;46.97;99650.05;3863278;75;44042;-25
2021/03/29 19:15:28;;;;;;;6.97;3.00;;;;;;;14.87;47.12;99658.15;3862542;75;43989;-24
2021/03/29 19:20:35;;;;;;;5.37;2.50;;;;;;;14.68;47.58;99666.49;3868271;75;44194;-24
2021/03/29 19:25:42;;;;;;;7.10;2.83;;;;;;;14.48;47.56;99670.19;3847497;75;43447;-24
2021/03/29 19:30:48;;;;;;;6.53;3.02;;;;;;;14.52;47.99;99678.86;3810059;75;44002;-24
2021/03/29 19:35:55;;;;;;;5.12;2.40;;;;;;;14.33;48.30;99675.80;3820933;75;44917;-24
2021/03/29 19:41:01;;;;;;;4.25;2.47;;;;;;;14.30;47.95;99673.39;3853072;75;44402;-24
2021/03/29 19:46:07;;;;;;;4.70;2.60;;;;;;;14.29;47.86;99675.75;3861955;75;44041;-24
2021/03/29 19:51:14;;;;;;;4.17;2.90;;;;;;;14.22;48.43;99678.26;3871141;75;44006;-24
2021/03/29 19:56:20;;;;;;;4.17;2.60;;;;;;;14.03;49.03;99676.53;3783848;77;43665;-24
2021/03/29 20:01:28;;;;;;;5.22;2.42;;;;;;;13.87;49.46;99677.20;3787506;77;44036;-24
2021/03/29 20:06:39;;;;;;;5.00;2.62;;;;;;;13.75;49.59;99673.84;3784011;77;43452;-24
2021/03/29 20:11:44;;;;;;;5.85;2.90;;;;;;;13.64;49.89;99674.04;3896629;74;43682;-24
2021/03/29 20:16:50;;;;;;;4.40;2.80;;;;;;;13.40;50.90;99681.71;3878404;75;44042;-24
2021/03/29 20:21:57;;;;;;;5.08;3.15;;;;;;;13.23;52.03;99682.44;3852945;75;44073;-25
2021/03/29 20:27:05;;;;;;;5.67;3.10;;;;;;;13.01;53.58;99698.50;3873224;75;44783;-24
2021/03/29 20:32:11;;;;;;;8.05;3.00;;;;;;;12.79;54.97;99693.30;3877107;75;44039;-25
2021/03/29 20:37:17;;;;;;;6.33;3.00;;;;;;;12.67;55.75;99686.33;3842893;75;43625;-24
2021/03/29 20:42:24;;;;;;;5.05;2.87;;;;;;;12.55;56.39;99687.48;3877051;75;44634;-24
2021/03/29 20:47:30;;;;;;;6.10;3.02;;;;;;;12.44;56.63;99685.28;3875805;75;43473;-24
2021/03/29 20:52:39;;;;;;;5.87;3.00;;;;;;;12.28;57.32;99686.33;3885204;75;43625;-24
2021/03/29 20:57:44;;;;;;;6.00;2.90;;;;;;;12.21;57.78;99675.73;3879894;75;42899;-24
2021/03/29 21:02:51;;;;;;;6.85;2.45;;;;;;;12.15;57.84;99679.86;3861914;75;43071;-24
2021/03/29 21:07:57;;;;;;;6.33;2.75;;;;;;;12.30;55.85;99682.48;3857439;74;43681;-24
2021/03/29 21:13:03;;;;;;;5.53;3.10;;;;;;;12.29;56.37;99686.17;3852619;74;43296;-24
2021/03/29 21:18:09;;;;;;;8.20;3.22;;;;;;;12.09;57.79;99681.75;3893122;75;43325;-24
2021/03/29 21:23:17;;;;;;;6.17;2.83;;;;;;;11.95;58.68;99679.77;3872101;75;44413;-24
2021/03/29 21:28:24;;;;;;;6.97;3.12;;;;;;;11.79;59.75;99690.27;3855626;75;44128;-24
2021/03/29 21:33:31;;;;;;;6.37;2.92;;;;;;;11.66;60.35;99685.97;3841462;74;44717;-24
2021/03/29 21:38:37;;;;;;;4.30;3.02;;;;;;;11.60;60.27;99695.95;3849511;75;43682;-24
2021/03/29 21:43:43;;;;;;;6.47;3.10;;;;;;;11.52;60.49;99695.78;4016698;71;43706;-24
2021/03/29 21:48:49;;;;;;;5.45;3.52;;;;;;;11.48;60.58;99694.34;3962685;73;42669;-24
2021/03/29 21:53:54;;;;;;;6.90;3.15;;;;;;;11.41;60.92;99696.24;3964947;73;44051;-24
2021/03/29 21:59:01;;;;;;;5.30;2.90;;;;;;;11.31;61.30;99694.00;3963776;73;42672;-24
2021/03/29 22:04:07;;;;;;;5.97;2.83;;;;;;;11.22;61.84;99698.86;3952185;73;44050;-24
2021/03/29 22:09:14;;;;;;;3.65;2.50;;;;;;;11.12;62.13;99695.22;3950142;72;43412;-24
2021/03/29 22:14:21;;;;;;;5.05;3.27;;;;;;;11.07;62.08;99701.89;3999317;72;44997;-24
2021/03/29 22:19:27;;;;;;;5.60;2.77;;;;;;;11.09;61.88;99703.97;3995890;72;44072;-24
2021/03/29 22:24:33;;;;;;;5.42;2.87;;;;;;;11.06;61.66;99706.92;4039458;72;44033;-24
2021/03/29 22:29:51;;;;;;;6.03;3.37;;;;;;;10.99;62.35;99705.76;4066063;71;42804;-24
2021/03/29 22:35:04;;;;;;;4.85;2.87;;;;;;;10.97;61.96;99707.73;4000741;72;43715;-24
2021/03/29 22:40:26;;;;;;;3.98;2.87;;;;;;;11.02;61.09;99700.08;4033461;71;44882;-24
2021/03/29 22:45:25;;;;;;;4.33;2.77;;;;;;;10.95;61.83;99702.95;4027971;72;43636;-25
2021/03/29 22:50:31;;;;;;;5.60;3.00;;;;;;;10.74;63.14;99706.98;4050925;72;43033;-24
2021/03/29 22:55:37;;;;;;;6.80;3.02;;;;;;;10.54;64.61;99709.54;3964604;72;44202;-25
2021/03/29 23:00:44;;;;;;;4.75;2.75;;;;;;;10.29;66.63;99710.72;3982004;72;44050;-25
2021/03/29 23:05:50;;;;;;;6.10;2.83;;;;;;;10.20;67.28;99715.50;3995057;73;43717;-26
2021/03/29 23:10:56;;;;;;;5.47;2.95;;;;;;;10.25;66.93;99716.83;3963778;72;44443;-23
2021/03/29 23:16:06;;;;;;;4.67;2.72;;;;;;;10.22;67.19;99720.27;4000448;73;43610;-25
2021/03/29 23:21:11;;;;;;;5.15;3.12;;;;;;;10.08;67.91;99729.00;3940633;73;44039;-23
2021/03/29 23:26:18;;;;;;;6.05;2.80;;;;;;;10.01;68.43;99727.80;4052894;71;43379;-24
2021/03/29 23:31:24;;;;;;;6.65;3.08;;;;;;;9.95;68.63;99729.63;3967064;72;44050;-23
2021/03/29 23:36:29;;;;;;;6.03;2.83;;;;;;;9.91;68.85;99729.53;4001025;72;42967;-23
2021/03/29 23:41:35;;;;;;;4.33;2.55;;;;;;;9.89;68.87;99724.25;3989481;72;44107;-23
2021/03/29 23:46:41;;;;;;;7.25;3.08;;;;;;;9.84;69.31;99737.25;4061895;71;43493;-23
2021/03/29 23:51:47;;;;;;;6.70;3.08;;;;;;;9.76;69.99;99743.25;3992401;71;44526;-23
2021/03/29 23:56:53;;;;;;;5.12;2.60;;;;;;;9.67;70.49;99742.14;4044449;71;44128;-23
